sensor_id;sensor_type;location;lat;lon;timestamp;P1;durP1;ratioP1;P2;durP2;ratioP2
4980;SDS011;2507;50.392;7.482;2023-04-15T00:01:17;7.53;;;5.20;;
4980;SDS011;2507;50.392;7.482;2023-04-15T00:03:43;4.67;;;4.23;;
4980;SDS011;2507;50.392;7.482;2023-04-15T00:06:09;4.73;;;4.33;;
4980;SDS011;2507;50.392;7.482;2023-04-15T00:08:34;6.13;;;5.17;;
4980;SDS011;2507;50.392;7.482;2023-04-15T00:10:59;9.00;;;5.03;;
4980;SDS011;2507;50.392;7.482;2023-04-15T00:13:26;7.70;;;5.20;;
4980;SDS011;2507;50.392;7.482;2023-04-15T00:15:52;4.97;;;4.57;;
4980;SDS011;2507;50.392;7.482;2023-04-15T00:18:17;5.47;;;4.50;;
4980;SDS011;2507;50.392;7.482;2023-04-15T00:20:42;4.87;;;4.47;;
4980;SDS011;2507;50.392;7.482;2023-04-15T00:23:08;5.67;;;4.30;;
4980;SDS011;2507;50.392;7.482;2023-04-15T00:25:33;6.17;;;5.57;;
4980;SDS011;2507;50.392;7.482;2023-04-15T00:27:58;5.23;;;4.73;;
4980;SDS011;2507;50.392;7.482;2023-04-15T00:30:24;7.20;;;4.93;;
4980;SDS011;2507;50.392;7.482;2023-04-15T00:32:50;7.23;;;4.93;;
4980;SDS011;2507;50.392;7.482;2023-04-15T00:35:15;5.37;;;4.87;;
4980;SDS011;2507;50.392;7.482;2023-04-15T00:37:41;7.43;;;5.23;;
4980;SDS011;2507;50.392;7.482;2023-04-15T00:40:07;10.87;;;5.60;;
4980;SDS011;2507;50.392;7.482;2023-04-15T00:42:36;5.27;;;4.73;;
4980;SDS011;2507;50.392;7.482;2023-04-15T00:45:02;6.57;;;5.87;;
4980;SDS011;2507;50.392;7.482;2023-04-15T00:47:27;8.03;;;4.93;;
4980;SDS011;2507;50.392;7.482;2023-04-15T00:49:53;9.60;;;5.00;;
4980;SDS011;2507;50.392;7.482;2023-04-15T00:52:19;8.33;;;4.33;;
4980;SDS011;2507;50.392;7.482;2023-04-15T00:54:44;6.57;;;5.13;;
4980;SDS011;2507;50.392;7.482;2023-04-15T00:57:09;6.03;;;5.20;;
4980;SDS011;2507;50.392;7.482;2023-04-15T00:59:34;7.73;;;5.50;;
4980;SDS011;2507;50.392;7.482;2023-04-15T01:02:00;8.40;;;5.30;;
4980;SDS011;2507;50.392;7.482;2023-04-15T01:04:25;6.07;;;5.00;;
4980;SDS011;2507;50.392;7.482;2023-04-15T01:06:51;4.83;;;4.33;;
4980;SDS011;2507;50.392;7.482;2023-04-15T01:09:16;6.33;;;4.60;;
4980;SDS011;2507;50.392;7.482;2023-04-15T01:11:42;6.13;;;5.20;;
4980;SDS011;2507;50.392;7.482;2023-04-15T01:14:08;6.40;;;4.60;;
4980;SDS011;2507;50.392;7.482;2023-04-15T01:16:35;8.83;;;4.87;;
4980;SDS011;2507;50.392;7.482;2023-04-15T01:19:03;8.57;;;4.63;;
4980;SDS011;2507;50.392;7.482;2023-04-15T01:21:31;6.43;;;5.03;;
4980;SDS011;2507;50.392;7.482;2023-04-15T01:23:57;10.67;;;5.50;;
4980;SDS011;2507;50.392;7.482;2023-04-15T01:26:23;9.00;;;5.60;;
4980;SDS011;2507;50.392;7.482;2023-04-15T01:28:49;7.40;;;5.70;;
4980;SDS011;2507;50.392;7.482;2023-04-15T01:31:15;7.87;;;5.00;;
4980;SDS011;2507;50.392;7.482;2023-04-15T01:33:41;9.87;;;4.60;;
4980;SDS011;2507;50.392;7.482;2023-04-15T01:36:07;6.03;;;5.23;;
4980;SDS011;2507;50.392;7.482;2023-04-15T01:38:37;5.90;;;5.30;;
4980;SDS011;2507;50.392;7.482;2023-04-15T01:41:02;6.23;;;5.60;;
4980;SDS011;2507;50.392;7.482;2023-04-15T01:43:32;7.43;;;5.20;;
4980;SDS011;2507;50.392;7.482;2023-04-15T01:45:58;6.47;;;4.80;;
4980;SDS011;2507;50.392;7.482;2023-04-15T01:48:23;8.77;;;5.50;;
4980;SDS011;2507;50.392;7.482;2023-04-15T01:50:48;6.33;;;5.50;;
4980;SDS011;2507;50.392;7.482;2023-04-15T01:53:14;6.73;;;5.10;;
4980;SDS011;2507;50.392;7.482;2023-04-15T01:55:40;8.40;;;5.60;;
4980;SDS011;2507;50.392;7.482;2023-04-15T01:58:05;11.07;;;7.23;;
4980;SDS011;2507;50.392;7.482;2023-04-15T02:00:31;5.70;;;5.20;;
4980;SDS011;2507;50.392;7.482;2023-04-15T02:02:56;5.33;;;4.93;;
4980;SDS011;2507;50.392;7.482;2023-04-15T02:05:22;6.90;;;5.53;;
4980;SDS011;2507;50.392;7.482;2023-04-15T02:07:47;5.87;;;5.27;;
4980;SDS011;2507;50.392;7.482;2023-04-15T02:10:12;8.73;;;5.33;;
4980;SDS011;2507;50.392;7.482;2023-04-15T02:12:38;6.80;;;5.17;;
4980;SDS011;2507;50.392;7.482;2023-04-15T02:15:03;17.00;;;6.93;;
4980;SDS011;2507;50.392;7.482;2023-04-15T02:17:29;6.77;;;6.10;;
4980;SDS011;2507;50.392;7.482;2023-04-15T02:19:58;7.70;;;5.40;;
4980;SDS011;2507;50.392;7.482;2023-04-15T02:22:24;5.47;;;4.93;;
4980;SDS011;2507;50.392;7.482;2023-04-15T02:24:49;8.60;;;5.40;;
4980;SDS011;2507;50.392;7.482;2023-04-15T02:27:15;7.60;;;5.43;;
4980;SDS011;2507;50.392;7.482;2023-04-15T02:29:42;10.43;;;5.70;;
4980;SDS011;2507;50.392;7.482;2023-04-15T02:32:13;6.47;;;5.87;;
4980;SDS011;2507;50.392;7.482;2023-04-15T02:34:39;5.37;;;4.87;;
4980;SDS011;2507;50.392;7.482;2023-04-15T02:37:05;7.93;;;5.67;;
4980;SDS011;2507;50.392;7.482;2023-04-15T02:39:31;7.10;;;4.13;;
4980;SDS011;2507;50.392;7.482;2023-04-15T02:41:57;8.13;;;4.80;;
4980;SDS011;2507;50.392;7.482;2023-04-15T02:44:24;7.57;;;5.43;;
4980;SDS011;2507;50.392;7.482;2023-04-15T02:46:49;7.10;;;5.57;;
4980;SDS011;2507;50.392;7.482;2023-04-15T02:49:16;7.90;;;5.23;;
4980;SDS011;2507;50.392;7.482;2023-04-15T02:51:42;5.07;;;4.57;;
4980;SDS011;2507;50.392;7.482;2023-04-15T02:54:07;6.50;;;4.80;;
4980;SDS011;2507;50.392;7.482;2023-04-15T02:56:33;5.17;;;4.70;;
4980;SDS011;2507;50.392;7.482;2023-04-15T02:58:58;6.03;;;5.20;;
4980;SDS011;2507;50.392;7.482;2023-04-15T03:01:24;6.63;;;5.33;;
4980;SDS011;2507;50.392;7.482;2023-04-15T03:03:50;7.20;;;4.80;;
4980;SDS011;2507;50.392;7.482;2023-04-15T03:06:15;7.60;;;6.00;;
4980;SDS011;2507;50.392;7.482;2023-04-15T03:08:40;5.93;;;5.30;;
4980;SDS011;2507;50.392;7.482;2023-04-15T03:11:06;6.97;;;5.37;;
4980;SDS011;2507;50.392;7.482;2023-04-15T03:13:32;10.00;;;6.00;;
4980;SDS011;2507;50.392;7.482;2023-04-15T03:15:57;6.63;;;5.93;;
4980;SDS011;2507;50.392;7.482;2023-04-15T03:18:23;7.70;;;6.10;;
4980;SDS011;2507;50.392;7.482;2023-04-15T03:20:48;9.13;;;5.50;;
4980;SDS011;2507;50.392;7.482;2023-04-15T03:23:13;7.00;;;5.80;;
4980;SDS011;2507;50.392;7.482;2023-04-15T03:25:39;8.70;;;5.30;;
4980;SDS011;2507;50.392;7.482;2023-04-15T03:28:04;6.60;;;5.50;;
4980;SDS011;2507;50.392;7.482;2023-04-15T03:30:30;6.47;;;5.80;;
4980;SDS011;2507;50.392;7.482;2023-04-15T03:32:55;11.70;;;8.40;;
4980;SDS011;2507;50.392;7.482;2023-04-15T03:35:20;8.10;;;5.63;;
4980;SDS011;2507;50.392;7.482;2023-04-15T03:37:46;9.07;;;7.23;;
4980;SDS011;2507;50.392;7.482;2023-04-15T03:40:13;7.80;;;7.00;;
4980;SDS011;2507;50.392;7.482;2023-04-15T03:42:38;7.80;;;7.00;;
4980;SDS011;2507;50.392;7.482;2023-04-15T03:45:03;12.10;;;6.20;;
4980;SDS011;2507;50.392;7.482;2023-04-15T03:47:29;15.53;;;9.67;;
4980;SDS011;2507;50.392;7.482;2023-04-15T03:49:54;14.17;;;10.57;;
4980;SDS011;2507;50.392;7.482;2023-04-15T03:52:20;10.13;;;8.53;;
4980;SDS011;2507;50.392;7.482;2023-04-15T03:54:45;7.60;;;5.90;;
4980;SDS011;2507;50.392;7.482;2023-04-15T03:57:11;10.43;;;6.17;;
4980;SDS011;2507;50.392;7.482;2023-04-15T03:59:36;5.90;;;5.40;;
4980;SDS011;2507;50.392;7.482;2023-04-15T04:02:02;7.50;;;6.00;;
4980;SDS011;2507;50.392;7.482;2023-04-15T04:04:27;11.50;;;6.53;;
4980;SDS011;2507;50.392;7.482;2023-04-15T04:06:52;6.77;;;6.07;;
4980;SDS011;2507;50.392;7.482;2023-04-15T04:09:17;12.03;;;5.23;;
4980;SDS011;2507;50.392;7.482;2023-04-15T04:11:43;8.50;;;5.77;;
4980;SDS011;2507;50.392;7.482;2023-04-15T04:14:09;8.10;;;6.00;;
4980;SDS011;2507;50.392;7.482;2023-04-15T04:16:34;6.93;;;6.27;;
4980;SDS011;2507;50.392;7.482;2023-04-15T04:19:00;5.63;;;5.20;;
4980;SDS011;2507;50.392;7.482;2023-04-15T04:21:25;6.70;;;5.67;;
4980;SDS011;2507;50.392;7.482;2023-04-15T04:23:50;8.93;;;5.43;;
4980;SDS011;2507;50.392;7.482;2023-04-15T04:26:16;7.60;;;6.57;;
4980;SDS011;2507;50.392;7.482;2023-04-15T04:28:41;7.00;;;6.33;;
4980;SDS011;2507;50.392;7.482;2023-04-15T04:31:06;10.17;;;6.90;;
4980;SDS011;2507;50.392;7.482;2023-04-15T04:33:32;6.80;;;5.97;;
4980;SDS011;2507;50.392;7.482;2023-04-15T04:35:57;8.33;;;5.53;;
4980;SDS011;2507;50.392;7.482;2023-04-15T04:38:23;6.57;;;5.93;;
4980;SDS011;2507;50.392;7.482;2023-04-15T04:40:48;6.17;;;5.33;;
4980;SDS011;2507;50.392;7.482;2023-04-15T04:43:13;7.70;;;5.97;;
4980;SDS011;2507;50.392;7.482;2023-04-15T04:45:39;7.13;;;5.63;;
4980;SDS011;2507;50.392;7.482;2023-04-15T04:48:05;6.40;;;5.67;;
4980;SDS011;2507;50.392;7.482;2023-04-15T04:50:32;6.10;;;5.60;;
4980;SDS011;2507;50.392;7.482;2023-04-15T04:52:59;6.97;;;5.47;;
4980;SDS011;2507;50.392;7.482;2023-04-15T04:55:24;6.87;;;6.17;;
4980;SDS011;2507;50.392;7.482;2023-04-15T04:57:50;9.20;;;6.03;;
4980;SDS011;2507;50.392;7.482;2023-04-15T05:00:16;7.30;;;5.63;;
4980;SDS011;2507;50.392;7.482;2023-04-15T05:02:41;7.40;;;6.20;;
4980;SDS011;2507;50.392;7.482;2023-04-15T05:05:08;7.10;;;6.40;;
4980;SDS011;2507;50.392;7.482;2023-04-15T05:07:34;9.43;;;6.20;;
4980;SDS011;2507;50.392;7.482;2023-04-15T05:09:59;8.63;;;6.10;;
4980;SDS011;2507;50.392;7.482;2023-04-15T05:12:24;6.60;;;5.87;;
4980;SDS011;2507;50.392;7.482;2023-04-15T05:14:50;7.00;;;6.30;;
4980;SDS011;2507;50.392;7.482;2023-04-15T05:17:15;9.10;;;6.80;;
4980;SDS011;2507;50.392;7.482;2023-04-15T05:19:41;7.63;;;6.13;;
4980;SDS011;2507;50.392;7.482;2023-04-15T05:22:06;6.63;;;5.43;;
4980;SDS011;2507;50.392;7.482;2023-04-15T05:24:32;7.50;;;5.33;;
4980;SDS011;2507;50.392;7.482;2023-04-15T05:26:57;6.73;;;6.13;;
4980;SDS011;2507;50.392;7.482;2023-04-15T05:29:22;8.33;;;5.67;;
4980;SDS011;2507;50.392;7.482;2023-04-15T05:31:48;8.73;;;6.40;;
4980;SDS011;2507;50.392;7.482;2023-04-15T05:34:13;9.20;;;5.20;;
4980;SDS011;2507;50.392;7.482;2023-04-15T05:36:40;4.40;;;4.10;;
4980;SDS011;2507;50.392;7.482;2023-04-15T05:39:05;4.53;;;4.13;;
4980;SDS011;2507;50.392;7.482;2023-04-15T05:41:31;5.77;;;4.27;;
4980;SDS011;2507;50.392;7.482;2023-04-15T05:43:56;4.90;;;4.47;;
4980;SDS011;2507;50.392;7.482;2023-04-15T05:46:21;5.43;;;4.93;;
4980;SDS011;2507;50.392;7.482;2023-04-15T05:48:47;4.90;;;4.40;;
4980;SDS011;2507;50.392;7.482;2023-04-15T05:51:12;3.90;;;3.70;;
4980;SDS011;2507;50.392;7.482;2023-04-15T05:53:37;8.13;;;4.10;;
4980;SDS011;2507;50.392;7.482;2023-04-15T05:56:03;6.80;;;3.90;;
4980;SDS011;2507;50.392;7.482;2023-04-15T05:58:28;4.93;;;4.13;;
4980;SDS011;2507;50.392;7.482;2023-04-15T06:00:53;3.87;;;3.57;;
4980;SDS011;2507;50.392;7.482;2023-04-15T06:03:19;4.30;;;3.90;;
4980;SDS011;2507;50.392;7.482;2023-04-15T06:05:44;3.60;;;3.30;;
4980;SDS011;2507;50.392;7.482;2023-04-15T06:08:09;5.47;;;4.13;;
4980;SDS011;2507;50.392;7.482;2023-04-15T06:10:35;8.97;;;4.20;;
4980;SDS011;2507;50.392;7.482;2023-04-15T06:13:04;6.83;;;4.40;;
4980;SDS011;2507;50.392;7.482;2023-04-15T06:15:30;6.53;;;5.53;;
4980;SDS011;2507;50.392;7.482;2023-04-15T06:17:55;6.10;;;4.73;;
4980;SDS011;2507;50.392;7.482;2023-04-15T06:20:21;3.70;;;3.40;;
4980;SDS011;2507;50.392;7.482;2023-04-15T06:22:46;4.30;;;3.60;;
4980;SDS011;2507;50.392;7.482;2023-04-15T06:25:12;4.23;;;3.83;;
4980;SDS011;2507;50.392;7.482;2023-04-15T06:27:38;4.07;;;3.63;;
4980;SDS011;2507;50.392;7.482;2023-04-15T06:30:03;6.97;;;3.70;;
4980;SDS011;2507;50.392;7.482;2023-04-15T06:32:29;8.77;;;2.93;;
4980;SDS011;2507;50.392;7.482;2023-04-15T06:34:55;5.10;;;3.37;;
4980;SDS011;2507;50.392;7.482;2023-04-15T06:37:21;4.70;;;4.00;;
4980;SDS011;2507;50.392;7.482;2023-04-15T06:39:46;7.03;;;4.00;;
4980;SDS011;2507;50.392;7.482;2023-04-15T06:42:11;3.60;;;3.30;;
4980;SDS011;2507;50.392;7.482;2023-04-15T06:44:37;5.57;;;3.80;;
4980;SDS011;2507;50.392;7.482;2023-04-15T06:47:02;3.83;;;3.40;;
4980;SDS011;2507;50.392;7.482;2023-04-15T06:49:28;6.60;;;3.60;;
4980;SDS011;2507;50.392;7.482;2023-04-15T06:51:53;4.93;;;3.70;;
4980;SDS011;2507;50.392;7.482;2023-04-15T06:54:18;4.10;;;3.70;;
4980;SDS011;2507;50.392;7.482;2023-04-15T06:56:44;6.20;;;3.73;;
4980;SDS011;2507;50.392;7.482;2023-04-15T06:59:09;4.37;;;3.80;;
4980;SDS011;2507;50.392;7.482;2023-04-15T07:01:34;3.73;;;3.43;;
4980;SDS011;2507;50.392;7.482;2023-04-15T07:04:00;3.97;;;3.67;;
4980;SDS011;2507;50.392;7.482;2023-04-15T07:06:25;4.87;;;3.57;;
4980;SDS011;2507;50.392;7.482;2023-04-15T07:08:51;6.63;;;3.60;;
4980;SDS011;2507;50.392;7.482;2023-04-15T07:11:16;3.60;;;3.30;;
4980;SDS011;2507;50.392;7.482;2023-04-15T07:13:42;5.07;;;4.10;;
4980;SDS011;2507;50.392;7.482;2023-04-15T07:16:07;6.90;;;3.67;;
4980;SDS011;2507;50.392;7.482;2023-04-15T07:18:33;7.00;;;3.63;;
4980;SDS011;2507;50.392;7.482;2023-04-15T07:20:58;6.80;;;3.90;;
4980;SDS011;2507;50.392;7.482;2023-04-15T07:23:23;3.93;;;3.50;;
4980;SDS011;2507;50.392;7.482;2023-04-15T07:25:49;5.13;;;3.30;;
4980;SDS011;2507;50.392;7.482;2023-04-15T07:28:14;4.70;;;3.30;;
4980;SDS011;2507;50.392;7.482;2023-04-15T07:30:39;4.67;;;3.40;;
4980;SDS011;2507;50.392;7.482;2023-04-15T07:33:05;5.53;;;3.60;;
4980;SDS011;2507;50.392;7.482;2023-04-15T07:35:31;4.13;;;3.73;;
4980;SDS011;2507;50.392;7.482;2023-04-15T07:37:57;6.43;;;4.23;;
4980;SDS011;2507;50.392;7.482;2023-04-15T07:40:22;4.43;;;3.60;;
4980;SDS011;2507;50.392;7.482;2023-04-15T07:42:48;9.23;;;4.50;;
4980;SDS011;2507;50.392;7.482;2023-04-15T07:45:13;6.80;;;4.13;;
4980;SDS011;2507;50.392;7.482;2023-04-15T07:47:39;4.70;;;3.67;;
4980;SDS011;2507;50.392;7.482;2023-04-15T07:50:06;7.17;;;4.03;;
4980;SDS011;2507;50.392;7.482;2023-04-15T07:52:31;4.00;;;3.43;;
4980;SDS011;2507;50.392;7.482;2023-04-15T07:55:03;5.70;;;3.80;;
4980;SDS011;2507;50.392;7.482;2023-04-15T07:57:30;9.63;;;4.23;;
4980;SDS011;2507;50.392;7.482;2023-04-15T07:59:55;4.83;;;3.73;;
4980;SDS011;2507;50.392;7.482;2023-04-15T08:02:20;5.60;;;4.03;;
4980;SDS011;2507;50.392;7.482;2023-04-15T08:04:46;4.10;;;3.70;;
4980;SDS011;2507;50.392;7.482;2023-04-15T08:07:11;4.53;;;3.97;;
4980;SDS011;2507;50.392;7.482;2023-04-15T08:09:37;4.70;;;4.00;;
4980;SDS011;2507;50.392;7.482;2023-04-15T08:12:02;8.53;;;4.50;;
4980;SDS011;2507;50.392;7.482;2023-04-15T08:14:27;5.03;;;4.03;;
4980;SDS011;2507;50.392;7.482;2023-04-15T08:16:53;6.53;;;4.00;;
4980;SDS011;2507;50.392;7.482;2023-04-15T08:19:18;8.97;;;4.80;;
4980;SDS011;2507;50.392;7.482;2023-04-15T08:21:44;4.53;;;4.10;;
4980;SDS011;2507;50.392;7.482;2023-04-15T08:24:10;6.50;;;4.70;;
4980;SDS011;2507;50.392;7.482;2023-04-15T08:26:35;4.63;;;4.13;;
4980;SDS011;2507;50.392;7.482;2023-04-15T08:29:00;6.37;;;4.40;;
4980;SDS011;2507;50.392;7.482;2023-04-15T08:31:26;7.70;;;4.30;;
4980;SDS011;2507;50.392;7.482;2023-04-15T08:33:53;11.10;;;4.93;;
4980;SDS011;2507;50.392;7.482;2023-04-15T08:36:21;4.77;;;4.13;;
4980;SDS011;2507;50.392;7.482;2023-04-15T08:38:47;4.93;;;4.43;;
4980;SDS011;2507;50.392;7.482;2023-04-15T08:41:17;7.27;;;4.00;;
4980;SDS011;2507;50.392;7.482;2023-04-15T08:43:50;7.03;;;4.47;;
4980;SDS011;2507;50.392;7.482;2023-04-15T08:46:18;6.57;;;4.47;;
4980;SDS011;2507;50.392;7.482;2023-04-15T08:48:43;4.43;;;4.03;;
4980;SDS011;2507;50.392;7.482;2023-04-15T08:51:11;7.33;;;4.17;;
4980;SDS011;2507;50.392;7.482;2023-04-15T08:53:40;8.17;;;4.60;;
4980;SDS011;2507;50.392;7.482;2023-04-15T08:56:08;6.03;;;4.80;;
4980;SDS011;2507;50.392;7.482;2023-04-15T08:58:36;5.07;;;4.47;;
4980;SDS011;2507;50.392;7.482;2023-04-15T09:01:02;8.20;;;5.00;;
4980;SDS011;2507;50.392;7.482;2023-04-15T09:03:27;13.10;;;5.20;;
4980;SDS011;2507;50.392;7.482;2023-04-15T09:05:52;4.43;;;4.00;;
4980;SDS011;2507;50.392;7.482;2023-04-15T09:08:18;4.90;;;4.40;;
4980;SDS011;2507;50.392;7.482;2023-04-15T09:10:44;7.13;;;4.60;;
4980;SDS011;2507;50.392;7.482;2023-04-15T09:13:09;5.73;;;4.37;;
4980;SDS011;2507;50.392;7.482;2023-04-15T09:15:36;8.20;;;3.77;;
4980;SDS011;2507;50.392;7.482;2023-04-15T09:18:03;3.70;;;3.37;;
4980;SDS011;2507;50.392;7.482;2023-04-15T09:20:28;12.00;;;3.50;;
4980;SDS011;2507;50.392;7.482;2023-04-15T09:22:54;5.17;;;2.57;;
4980;SDS011;2507;50.392;7.482;2023-04-15T09:27:48;4.00;;;2.47;;
4980;SDS011;2507;50.392;7.482;2023-04-15T09:30:14;3.97;;;2.40;;
4980;SDS011;2507;50.392;7.482;2023-04-15T09:32:48;3.80;;;2.10;;
4980;SDS011;2507;50.392;7.482;2023-04-15T09:35:20;3.30;;;2.57;;
4980;SDS011;2507;50.392;7.482;2023-04-15T09:37:47;5.30;;;2.70;;
4980;SDS011;2507;50.392;7.482;2023-04-15T09:40:13;3.17;;;2.40;;
4980;SDS011;2507;50.392;7.482;2023-04-15T09:42:54;5.67;;;3.40;;
4980;SDS011;2507;50.392;7.482;2023-04-15T09:45:20;3.90;;;2.70;;
4980;SDS011;2507;50.392;7.482;2023-04-15T09:47:46;3.07;;;2.77;;
4980;SDS011;2507;50.392;7.482;2023-04-15T09:50:11;2.80;;;2.50;;
4980;SDS011;2507;50.392;7.482;2023-04-15T09:52:41;5.57;;;3.57;;
4980;SDS011;2507;50.392;7.482;2023-04-15T09:55:07;2.60;;;2.40;;
4980;SDS011;2507;50.392;7.482;2023-04-15T09:57:33;3.77;;;2.00;;
4980;SDS011;2507;50.392;7.482;2023-04-15T10:00:06;3.63;;;2.00;;
4980;SDS011;2507;50.392;7.482;2023-04-15T10:02:34;3.00;;;2.00;;
4980;SDS011;2507;50.392;7.482;2023-04-15T10:05:00;4.27;;;2.20;;
4980;SDS011;2507;50.392;7.482;2023-04-15T10:07:27;3.43;;;2.23;;
4980;SDS011;2507;50.392;7.482;2023-04-15T10:09:52;2.80;;;2.37;;
4980;SDS011;2507;50.392;7.482;2023-04-15T10:12:18;5.10;;;2.20;;
4980;SDS011;2507;50.392;7.482;2023-04-15T10:14:47;2.30;;;2.10;;
4980;SDS011;2507;50.392;7.482;2023-04-15T10:17:16;2.70;;;1.73;;
4980;SDS011;2507;50.392;7.482;2023-04-15T10:19:42;2.80;;;2.00;;
4980;SDS011;2507;50.392;7.482;2023-04-15T10:22:08;3.33;;;1.73;;
4980;SDS011;2507;50.392;7.482;2023-04-15T10:24:34;1.87;;;1.77;;
4980;SDS011;2507;50.392;7.482;2023-04-15T10:26:59;2.00;;;1.80;;
4980;SDS011;2507;50.392;7.482;2023-04-15T10:29:27;5.93;;;2.13;;
4980;SDS011;2507;50.392;7.482;2023-04-15T10:31:57;5.13;;;2.00;;
4980;SDS011;2507;50.392;7.482;2023-04-15T10:34:23;1.83;;;1.57;;
4980;SDS011;2507;50.392;7.482;2023-04-15T10:36:49;3.30;;;1.40;;
4980;SDS011;2507;50.392;7.482;2023-04-15T10:42:10;2.00;;;1.27;;
4980;SDS011;2507;50.392;7.482;2023-04-15T10:44:37;1.50;;;1.40;;
4980;SDS011;2507;50.392;7.482;2023-04-15T10:47:36;1.30;;;1.20;;
4980;SDS011;2507;50.392;7.482;2023-04-15T10:49:56;1.03;;;0.93;;
4980;SDS011;2507;50.392;7.482;2023-04-15T10:52:24;1.10;;;1.10;;
4980;SDS011;2507;50.392;7.482;2023-04-15T10:57:36;0.93;;;0.90;;
4980;SDS011;2507;50.392;7.482;2023-04-15T11:02:42;1.90;;;1.70;;
4980;SDS011;2507;50.392;7.482;2023-04-15T11:05:12;0.90;;;0.70;;
4980;SDS011;2507;50.392;7.482;2023-04-15T11:07:48;1.50;;;0.90;;
4980;SDS011;2507;50.392;7.482;2023-04-15T11:12:51;1.77;;;1.30;;
4980;SDS011;2507;50.392;7.482;2023-04-15T11:15:37;1.20;;;1.20;;
4980;SDS011;2507;50.392;7.482;2023-04-15T11:20:36;1.10;;;1.00;;
4980;SDS011;2507;50.392;7.482;2023-04-15T11:23:03;0.83;;;0.83;;
4980;SDS011;2507;50.392;7.482;2023-04-15T11:25:30;1.13;;;0.90;;
4980;SDS011;2507;50.392;7.482;2023-04-15T11:27:57;0.77;;;0.70;;
4980;SDS011;2507;50.392;7.482;2023-04-15T11:30:24;0.80;;;0.80;;
4980;SDS011;2507;50.392;7.482;2023-04-15T11:32:53;1.00;;;0.90;;
4980;SDS011;2507;50.392;7.482;2023-04-15T11:35:23;1.33;;;0.93;;
4980;SDS011;2507;50.392;7.482;2023-04-15T11:37:48;0.73;;;0.70;;
4980;SDS011;2507;50.392;7.482;2023-04-15T11:40:15;1.93;;;0.93;;
4980;SDS011;2507;50.392;7.482;2023-04-15T11:42:44;2.67;;;0.90;;
4980;SDS011;2507;50.392;7.482;2023-04-15T11:45:10;1.10;;;0.83;;
4980;SDS011;2507;50.392;7.482;2023-04-15T11:47:36;1.60;;;1.20;;
4980;SDS011;2507;50.392;7.482;2023-04-15T11:50:18;1.07;;;0.80;;
4980;SDS011;2507;50.392;7.482;2023-04-15T11:52:55;1.00;;;1.00;;
4980;SDS011;2507;50.392;7.482;2023-04-15T11:55:25;1.10;;;1.10;;
4980;SDS011;2507;50.392;7.482;2023-04-15T12:01:00;1.43;;;1.27;;
4980;SDS011;2507;50.392;7.482;2023-04-15T12:03:26;0.70;;;0.70;;
4980;SDS011;2507;50.392;7.482;2023-04-15T12:11:13;2.90;;;1.00;;
4980;SDS011;2507;50.392;7.482;2023-04-15T12:13:43;1.50;;;1.40;;
4980;SDS011;2507;50.392;7.482;2023-04-15T12:16:09;1.37;;;1.37;;
4980;SDS011;2507;50.392;7.482;2023-04-15T12:18:38;2.97;;;1.40;;
4980;SDS011;2507;50.392;7.482;2023-04-15T12:21:07;2.23;;;1.60;;
4980;SDS011;2507;50.392;7.482;2023-04-15T12:23:37;1.83;;;1.73;;
4980;SDS011;2507;50.392;7.482;2023-04-15T12:26:05;1.90;;;1.90;;
4980;SDS011;2507;50.392;7.482;2023-04-15T12:28:32;1.67;;;1.67;;
4980;SDS011;2507;50.392;7.482;2023-04-15T12:30:59;2.30;;;2.10;;
4980;SDS011;2507;50.392;7.482;2023-04-15T12:33:33;2.60;;;2.40;;
4980;SDS011;2507;50.392;7.482;2023-04-15T12:35:59;2.67;;;2.57;;
4980;SDS011;2507;50.392;7.482;2023-04-15T12:38:25;3.27;;;2.90;;
4980;SDS011;2507;50.392;7.482;2023-04-15T12:40:50;3.00;;;2.80;;
4980;SDS011;2507;50.392;7.482;2023-04-15T12:43:15;3.13;;;2.93;;
4980;SDS011;2507;50.392;7.482;2023-04-15T12:45:41;2.90;;;2.80;;
4980;SDS011;2507;50.392;7.482;2023-04-15T12:48:06;3.07;;;2.97;;
4980;SDS011;2507;50.392;7.482;2023-04-15T12:50:33;3.30;;;3.20;;
4980;SDS011;2507;50.392;7.482;2023-04-15T12:52:59;4.40;;;4.20;;
4980;SDS011;2507;50.392;7.482;2023-04-15T12:55:24;4.10;;;3.90;;
4980;SDS011;2507;50.392;7.482;2023-04-15T12:57:49;4.00;;;3.80;;
4980;SDS011;2507;50.392;7.482;2023-04-15T13:00:14;4.33;;;4.10;;
4980;SDS011;2507;50.392;7.482;2023-04-15T13:02:40;4.93;;;4.53;;
4980;SDS011;2507;50.392;7.482;2023-04-15T13:05:07;6.40;;;6.00;;
4980;SDS011;2507;50.392;7.482;2023-04-15T13:07:33;5.20;;;4.80;;
4980;SDS011;2507;50.392;7.482;2023-04-15T13:09:58;6.20;;;5.80;;
4980;SDS011;2507;50.392;7.482;2023-04-15T13:12:23;5.10;;;4.73;;
4980;SDS011;2507;50.392;7.482;2023-04-15T13:14:51;5.60;;;5.27;;
4980;SDS011;2507;50.392;7.482;2023-04-15T13:17:16;5.63;;;5.23;;
4980;SDS011;2507;50.392;7.482;2023-04-15T13:19:44;5.27;;;4.97;;
4980;SDS011;2507;50.392;7.482;2023-04-15T13:22:10;5.57;;;5.27;;
4980;SDS011;2507;50.392;7.482;2023-04-15T13:24:35;6.60;;;6.00;;
4980;SDS011;2507;50.392;7.482;2023-04-15T13:27:01;5.37;;;5.07;;
4980;SDS011;2507;50.392;7.482;2023-04-15T13:29:28;4.90;;;4.60;;
4980;SDS011;2507;50.392;7.482;2023-04-15T13:31:54;5.10;;;4.60;;
4980;SDS011;2507;50.392;7.482;2023-04-15T13:34:20;4.30;;;4.10;;
4980;SDS011;2507;50.392;7.482;2023-04-15T13:36:46;4.80;;;4.50;;
4980;SDS011;2507;50.392;7.482;2023-04-15T13:39:11;5.03;;;4.70;;
4980;SDS011;2507;50.392;7.482;2023-04-15T13:41:36;5.30;;;5.00;;
4980;SDS011;2507;50.392;7.482;2023-04-15T13:44:01;4.80;;;4.60;;
4980;SDS011;2507;50.392;7.482;2023-04-15T13:46:27;5.00;;;4.70;;
4980;SDS011;2507;50.392;7.482;2023-04-15T13:48:52;4.97;;;4.67;;
4980;SDS011;2507;50.392;7.482;2023-04-15T13:51:17;4.67;;;4.37;;
4980;SDS011;2507;50.392;7.482;2023-04-15T13:53:43;4.33;;;4.13;;
4980;SDS011;2507;50.392;7.482;2023-04-15T13:56:08;4.33;;;4.03;;
4980;SDS011;2507;50.392;7.482;2023-04-15T13:58:35;3.80;;;3.60;;
4980;SDS011;2507;50.392;7.482;2023-04-15T14:01:01;4.17;;;3.97;;
4980;SDS011;2507;50.392;7.482;2023-04-15T14:03:27;3.40;;;3.30;;
4980;SDS011;2507;50.392;7.482;2023-04-15T14:05:52;4.50;;;4.30;;
4980;SDS011;2507;50.392;7.482;2023-04-15T14:08:20;3.80;;;3.60;;
4980;SDS011;2507;50.392;7.482;2023-04-15T14:10:45;3.73;;;3.53;;
4980;SDS011;2507;50.392;7.482;2023-04-15T14:13:13;3.73;;;3.53;;
4980;SDS011;2507;50.392;7.482;2023-04-15T14:15:39;3.80;;;3.60;;
4980;SDS011;2507;50.392;7.482;2023-04-15T14:18:05;4.90;;;4.50;;
4980;SDS011;2507;50.392;7.482;2023-04-15T14:20:30;4.10;;;3.90;;
4980;SDS011;2507;50.392;7.482;2023-04-15T14:22:56;4.23;;;3.93;;
4980;SDS011;2507;50.392;7.482;2023-04-15T14:25:21;3.87;;;3.67;;
4980;SDS011;2507;50.392;7.482;2023-04-15T14:27:46;4.23;;;3.90;;
4980;SDS011;2507;50.392;7.482;2023-04-15T14:30:12;4.50;;;4.20;;
4980;SDS011;2507;50.392;7.482;2023-04-15T14:32:38;3.87;;;3.63;;
4980;SDS011;2507;50.392;7.482;2023-04-15T14:35:03;4.57;;;4.30;;
4980;SDS011;2507;50.392;7.482;2023-04-15T14:37:28;4.60;;;4.40;;
4980;SDS011;2507;50.392;7.482;2023-04-15T14:39:54;5.10;;;4.80;;
4980;SDS011;2507;50.392;7.482;2023-04-15T14:42:19;4.93;;;4.63;;
4980;SDS011;2507;50.392;7.482;2023-04-15T14:44:44;6.57;;;6.00;;
4980;SDS011;2507;50.392;7.482;2023-04-15T14:47:10;5.30;;;4.90;;
4980;SDS011;2507;50.392;7.482;2023-04-15T14:49:35;6.23;;;5.73;;
4980;SDS011;2507;50.392;7.482;2023-04-15T14:52:01;5.33;;;5.03;;
4980;SDS011;2507;50.392;7.482;2023-04-15T14:54:26;7.10;;;5.13;;
4980;SDS011;2507;50.392;7.482;2023-04-15T14:56:51;5.83;;;5.23;;
4980;SDS011;2507;50.392;7.482;2023-04-15T14:59:17;5.40;;;5.00;;
4980;SDS011;2507;50.392;7.482;2023-04-15T15:01:42;4.97;;;4.67;;
4980;SDS011;2507;50.392;7.482;2023-04-15T15:04:08;4.73;;;4.43;;
4980;SDS011;2507;50.392;7.482;2023-04-15T15:06:34;4.70;;;4.50;;
4980;SDS011;2507;50.392;7.482;2023-04-15T15:08:59;5.00;;;4.70;;
4980;SDS011;2507;50.392;7.482;2023-04-15T15:11:25;5.70;;;5.30;;
4980;SDS011;2507;50.392;7.482;2023-04-15T15:13:51;6.40;;;6.00;;
4980;SDS011;2507;50.392;7.482;2023-04-15T15:16:16;5.83;;;5.43;;
4980;SDS011;2507;50.392;7.482;2023-04-15T15:18:42;6.73;;;6.33;;
4980;SDS011;2507;50.392;7.482;2023-04-15T15:21:07;6.80;;;6.27;;
4980;SDS011;2507;50.392;7.482;2023-04-15T15:23:33;7.10;;;6.60;;
4980;SDS011;2507;50.392;7.482;2023-04-15T15:25:58;6.63;;;6.23;;
4980;SDS011;2507;50.392;7.482;2023-04-15T15:28:23;7.30;;;6.80;;
4980;SDS011;2507;50.392;7.482;2023-04-15T15:30:49;6.90;;;6.40;;
4980;SDS011;2507;50.392;7.482;2023-04-15T15:33:14;7.73;;;7.13;;